createdAt,value
2023-05-08T00:12:25.752Z,0
2023-05-08T00:27:25.865Z,0
2023-05-08T00:42:26.050Z,0
2023-05-08T00:57:25.422Z,0
2023-05-08T01:12:25.557Z,0
2023-05-08T01:27:25.686Z,0
2023-05-08T01:42:25.896Z,0.01
2023-05-08T01:57:25.973Z,0
2023-05-08T02:12:25.189Z,0
2023-05-08T02:27:25.299Z,0
2023-05-08T02:42:25.506Z,0
2023-05-08T02:57:25.689Z,0
2023-05-08T03:12:25.951Z,1.9
2023-05-08T03:27:25.549Z,4.84
2023-05-08T03:42:25.635Z,0.04
2023-05-08T03:57:25.779Z,0.11
2023-05-08T04:12:25.208Z,1.12
2023-05-08T04:27:25.454Z,0.16
2023-05-08T04:42:25.885Z,2.24
2023-05-08T04:57:25.358Z,0.11
2023-05-08T05:12:25.590Z,0.29
2023-05-08T05:27:25.957Z,2.06
2023-05-08T05:42:25.290Z,2.04
2023-05-08T05:57:25.450Z,0.79
2023-05-08T06:12:25.653Z,3.86
2023-05-08T06:27:25.761Z,1.91
2023-05-08T06:42:25.774Z,0.48
2023-05-08T06:57:25.658Z,1.5
2023-05-08T07:12:25.581Z,0.39
2023-05-08T07:27:25.404Z,0.16
2023-05-08T07:42:25.225Z,0.13
2023-05-08T07:57:25.865Z,1.44
2023-05-08T08:12:25.605Z,3.02
2023-05-08T08:27:25.217Z,0.19
2023-05-08T08:42:25.575Z,0.01
2023-05-08T08:57:25.812Z,0.35
2023-05-08T09:12:25.156Z,0.04
2023-05-08T09:27:25.432Z,0.13
2023-05-08T09:42:25.817Z,0.37
2023-05-08T09:57:25.419Z,0.34
2023-05-08T10:12:25.802Z,0.6
2023-05-08T10:27:25.863Z,0.09
2023-05-08T10:42:25.869Z,0.31
2023-05-08T10:57:25.977Z,0.4
2023-05-08T11:12:25.253Z,1.65
2023-05-08T11:27:25.922Z,0.78
2023-05-08T11:42:26.053Z,1.06
2023-05-08T11:57:25.389Z,0.04
2023-05-08T12:12:25.743Z,3.04
2023-05-08T12:27:25.274Z,0.63
2023-05-08T12:42:25.667Z,1.5
2023-05-08T12:57:25.806Z,24.31
2023-05-08T13:27:25.874Z,0.45
2023-05-08T13:42:26.033Z,0.43
2023-05-08T13:57:25.874Z,0.48
2023-05-08T14:12:25.981Z,0.92
2023-05-08T14:27:25.381Z,1.85
2023-05-08T14:42:26.123Z,8.19
2023-05-08T14:57:25.546Z,8.09
2023-05-08T15:12:25.211Z,13.42
2023-05-08T15:27:25.257Z,6.66
2023-05-08T15:42:25.747Z,3.55
2023-05-08T15:57:25.249Z,4.96
2023-05-08T16:12:25.712Z,5.25
2023-05-08T16:27:25.315Z,2.6
2023-05-08T16:42:25.909Z,2.48
2023-05-08T16:57:25.792Z,4.85
2023-05-08T17:12:25.718Z,7.24
2023-05-08T17:27:25.633Z,7.77
2023-05-08T17:42:26.031Z,18.92
2023-05-08T17:57:25.945Z,15.73
2023-05-08T18:12:25.811Z,19.34
2023-05-08T18:27:25.615Z,16.92
2023-05-08T18:42:25.644Z,14.61
2023-05-08T18:57:25.623Z,11.69
2023-05-08T19:12:25.337Z,13.83
2023-05-08T19:27:25.850Z,13.26
2023-05-08T19:42:25.991Z,13.5
2023-05-08T19:57:25.630Z,9.66
2023-05-08T20:12:25.980Z,8.25
2023-05-08T20:27:25.237Z,7.74
2023-05-08T20:42:26.021Z,8.56
2023-05-08T20:57:26.070Z,6.73
2023-05-08T21:12:26.185Z,2.2
2023-05-08T21:27:25.899Z,6.73
2023-05-08T21:42:25.895Z,6.56
2023-05-08T21:57:25.825Z,11.51
2023-05-08T22:12:25.287Z,9.39
2023-05-08T22:27:25.472Z,10.79
2023-05-08T22:42:25.558Z,11.97
2023-05-08T22:57:25.402Z,6.3
2023-05-08T23:12:25.860Z,8.03
2023-05-08T23:27:25.939Z,3.55
2023-05-08T23:42:26.261Z,2.05
2023-05-08T23:57:25.825Z,2.73
